sensor_id;sensor_type;location;lat;lon;timestamp;temperature;humidity
17236;DHT22;8734;59.272;17.780;2022-12-07T00:01:44;-4.10;99.90
17236;DHT22;8734;59.272;17.780;2022-12-07T00:04:16;-4.10;99.90
17236;DHT22;8734;59.272;17.780;2022-12-07T00:06:53;-4.00;99.90
17236;DHT22;8734;59.272;17.780;2022-12-07T00:09:23;-4.00;99.90
17236;DHT22;8734;59.272;17.780;2022-12-07T00:11:51;-3.80;99.90
17236;DHT22;8734;59.272;17.780;2022-12-07T00:14:20;-3.70;99.90
17236;DHT22;8734;59.272;17.780;2022-12-07T00:16:49;-3.70;99.90
17236;DHT22;8734;59.272;17.780;2022-12-07T00:19:19;-3.60;99.90
17236;DHT22;8734;59.272;17.780;2022-12-07T00:21:47;-3.60;99.90
17236;DHT22;8734;59.272;17.780;2022-12-07T00:24:16;-3.60;99.90
17236;DHT22;8734;59.272;17.780;2022-12-07T00:26:45;-3.60;99.90
17236;DHT22;8734;59.272;17.780;2022-12-07T00:29:15;-3.60;99.90
17236;DHT22;8734;59.272;17.780;2022-12-07T00:31:44;-3.60;99.90
17236;DHT22;8734;59.272;17.780;2022-12-07T00:34:13;-3.50;99.90
17236;DHT22;8734;59.272;17.780;2022-12-07T00:36:44;-3.50;99.90
17236;DHT22;8734;59.272;17.780;2022-12-07T00:39:13;-3.50;99.90
17236;DHT22;8734;59.272;17.780;2022-12-07T00:41:41;-3.50;99.90
17236;DHT22;8734;59.272;17.780;2022-12-07T00:44:09;-3.50;99.90
17236;DHT22;8734;59.272;17.780;2022-12-07T00:46:37;-3.50;99.90
17236;DHT22;8734;59.272;17.780;2022-12-07T00:49:07;-3.60;99.90
17236;DHT22;8734;59.272;17.780;2022-12-07T00:51:36;-3.60;99.90
17236;DHT22;8734;59.272;17.780;2022-12-07T00:54:05;-3.70;99.90
17236;DHT22;8734;59.272;17.780;2022-12-07T00:56:33;-3.80;99.90
17236;DHT22;8734;59.272;17.780;2022-12-07T00:59:03;-3.90;99.90
17236;DHT22;8734;59.272;17.780;2022-12-07T01:01:34;-3.80;99.90
17236;DHT22;8734;59.272;17.780;2022-12-07T01:04:03;-3.80;99.90
17236;DHT22;8734;59.272;17.780;2022-12-07T01:06:32;-3.80;99.90
17236;DHT22;8734;59.272;17.780;2022-12-07T01:09:01;-3.90;99.90
17236;DHT22;8734;59.272;17.780;2022-12-07T01:11:32;-4.00;99.90
17236;DHT22;8734;59.272;17.780;2022-12-07T01:14:01;-4.10;99.90
17236;DHT22;8734;59.272;17.780;2022-12-07T01:16:31;-4.20;99.90
17236;DHT22;8734;59.272;17.780;2022-12-07T01:19:02;-4.30;99.90
17236;DHT22;8734;59.272;17.780;2022-12-07T01:21:33;-4.40;99.90
17236;DHT22;8734;59.272;17.780;2022-12-07T01:24:05;-4.50;99.90
17236;DHT22;8734;59.272;17.780;2022-12-07T01:26:35;-4.50;99.90
17236;DHT22;8734;59.272;17.780;2022-12-07T01:29:04;-4.60;99.90
17236;DHT22;8734;59.272;17.780;2022-12-07T01:31:33;-4.60;99.90
17236;DHT22;8734;59.272;17.780;2022-12-07T01:34:01;-4.60;99.90
17236;DHT22;8734;59.272;17.780;2022-12-07T01:36:33;-4.70;99.90
17236;DHT22;8734;59.272;17.780;2022-12-07T01:39:04;-4.80;99.90
17236;DHT22;8734;59.272;17.780;2022-12-07T01:41:37;-4.80;99.90
17236;DHT22;8734;59.272;17.780;2022-12-07T01:44:21;-4.90;99.90
17236;DHT22;8734;59.272;17.780;2022-12-07T01:46:50;-4.90;99.90
17236;DHT22;8734;59.272;17.780;2022-12-07T01:49:26;-4.80;99.90
17236;DHT22;8734;59.272;17.780;2022-12-07T01:52:01;-4.80;99.90
17236;DHT22;8734;59.272;17.780;2022-12-07T01:54:31;-4.80;99.90
17236;DHT22;8734;59.272;17.780;2022-12-07T01:57:01;-4.80;99.90
17236;DHT22;8734;59.272;17.780;2022-12-07T01:59:31;-4.90;99.90
17236;DHT22;8734;59.272;17.780;2022-12-07T02:02:02;-4.80;99.90
17236;DHT22;8734;59.272;17.780;2022-12-07T02:04:32;-4.90;99.90
17236;DHT22;8734;59.272;17.780;2022-12-07T02:07:01;-4.90;99.90
17236;DHT22;8734;59.272;17.780;2022-12-07T02:09:30;-4.90;99.90
17236;DHT22;8734;59.272;17.780;2022-12-07T02:11:58;-5.00;99.90
17236;DHT22;8734;59.272;17.780;2022-12-07T02:14:28;-5.00;99.90
17236;DHT22;8734;59.272;17.780;2022-12-07T02:17:06;-5.00;99.90
17236;DHT22;8734;59.272;17.780;2022-12-07T02:20:04;-5.10;99.90
17236;DHT22;8734;59.272;17.780;2022-12-07T02:29:10;-5.20;99.90
17236;DHT22;8734;59.272;17.780;2022-12-07T02:31:43;-5.20;99.90
17236;DHT22;8734;59.272;17.780;2022-12-07T02:34:19;-5.20;99.90
17236;DHT22;8734;59.272;17.780;2022-12-07T02:36:54;-5.20;99.90
17236;DHT22;8734;59.272;17.780;2022-12-07T02:39:30;-5.20;99.90
17236;DHT22;8734;59.272;17.780;2022-12-07T02:42:03;-5.20;99.90
17236;DHT22;8734;59.272;17.780;2022-12-07T02:44:37;-5.20;99.90
17236;DHT22;8734;59.272;17.780;2022-12-07T02:47:13;-5.30;99.90
17236;DHT22;8734;59.272;17.780;2022-12-07T02:49:42;-5.30;99.90
17236;DHT22;8734;59.272;17.780;2022-12-07T02:52:12;-5.30;99.90
17236;DHT22;8734;59.272;17.780;2022-12-07T02:54:40;-5.30;99.90
17236;DHT22;8734;59.272;17.780;2022-12-07T02:57:21;-5.40;99.90
17236;DHT22;8734;59.272;17.780;2022-12-07T03:00:04;-5.40;99.90
17236;DHT22;8734;59.272;17.780;2022-12-07T03:02:39;-5.40;99.90
17236;DHT22;8734;59.272;17.780;2022-12-07T03:05:20;-5.40;99.90
17236;DHT22;8734;59.272;17.780;2022-12-07T03:08:00;-5.40;99.90
17236;DHT22;8734;59.272;17.780;2022-12-07T03:10:36;-5.40;99.90
17236;DHT22;8734;59.272;17.780;2022-12-07T03:13:12;-5.40;99.90
17236;DHT22;8734;59.272;17.780;2022-12-07T03:15:47;-5.40;99.90
17236;DHT22;8734;59.272;17.780;2022-12-07T03:18:19;-5.40;99.90
17236;DHT22;8734;59.272;17.780;2022-12-07T03:20:51;-5.50;99.90
17236;DHT22;8734;59.272;17.780;2022-12-07T03:23:21;-5.50;99.90
17236;DHT22;8734;59.272;17.780;2022-12-07T03:25:55;-5.50;99.90
17236;DHT22;8734;59.272;17.780;2022-12-07T03:28:31;-5.30;99.90
17236;DHT22;8734;59.272;17.780;2022-12-07T03:31:06;-5.10;99.90
17236;DHT22;8734;59.272;17.780;2022-12-07T03:33:42;-4.90;99.90
17236;DHT22;8734;59.272;17.780;2022-12-07T03:36:19;-4.80;99.90
17236;DHT22;8734;59.272;17.780;2022-12-07T03:38:53;-4.70;99.90
17236;DHT22;8734;59.272;17.780;2022-12-07T03:41:25;-4.60;99.90
17236;DHT22;8734;59.272;17.780;2022-12-07T03:43:55;-4.40;99.90
17236;DHT22;8734;59.272;17.780;2022-12-07T03:46:32;-4.30;99.90
17236;DHT22;8734;59.272;17.780;2022-12-07T03:49:08;-4.20;99.90
17236;DHT22;8734;59.272;17.780;2022-12-07T03:51:42;-4.20;99.90
17236;DHT22;8734;59.272;17.780;2022-12-07T03:54:16;-4.20;99.90
17236;DHT22;8734;59.272;17.780;2022-12-07T03:56:47;-4.30;99.90
17236;DHT22;8734;59.272;17.780;2022-12-07T03:59:16;-4.30;99.90
17236;DHT22;8734;59.272;17.780;2022-12-07T04:01:51;-4.40;99.90
17236;DHT22;8734;59.272;17.780;2022-12-07T04:04:21;-4.50;99.90
17236;DHT22;8734;59.272;17.780;2022-12-07T04:06:50;-4.60;99.90
17236;DHT22;8734;59.272;17.780;2022-12-07T04:09:18;-4.60;99.90
17236;DHT22;8734;59.272;17.780;2022-12-07T04:11:47;-4.60;99.90
17236;DHT22;8734;59.272;17.780;2022-12-07T04:14:15;-4.70;99.90
17236;DHT22;8734;59.272;17.780;2022-12-07T04:16:48;-4.70;99.90
17236;DHT22;8734;59.272;17.780;2022-12-07T04:19:17;-4.70;99.90
17236;DHT22;8734;59.272;17.780;2022-12-07T04:21:46;-4.80;99.90
17236;DHT22;8734;59.272;17.780;2022-12-07T04:24:15;-4.90;99.90
17236;DHT22;8734;59.272;17.780;2022-12-07T04:26:44;-4.90;99.90
17236;DHT22;8734;59.272;17.780;2022-12-07T04:29:13;-4.90;99.90
17236;DHT22;8734;59.272;17.780;2022-12-07T04:31:41;-4.90;99.90
17236;DHT22;8734;59.272;17.780;2022-12-07T04:34:13;-4.90;99.90
17236;DHT22;8734;59.272;17.780;2022-12-07T04:36:42;-4.90;99.90
17236;DHT22;8734;59.272;17.780;2022-12-07T04:39:17;-5.00;99.90
17236;DHT22;8734;59.272;17.780;2022-12-07T04:41:46;-5.00;99.90
17236;DHT22;8734;59.272;17.780;2022-12-07T04:44:16;-5.00;99.90
17236;DHT22;8734;59.272;17.780;2022-12-07T04:46:45;-5.00;99.90
17236;DHT22;8734;59.272;17.780;2022-12-07T04:49:16;-5.00;99.90
17236;DHT22;8734;59.272;17.780;2022-12-07T04:51:45;-5.00;99.90
17236;DHT22;8734;59.272;17.780;2022-12-07T04:54:14;-5.00;99.90
17236;DHT22;8734;59.272;17.780;2022-12-07T04:56:44;-5.00;99.90
17236;DHT22;8734;59.272;17.780;2022-12-07T04:59:13;-5.00;99.90
17236;DHT22;8734;59.272;17.780;2022-12-07T05:01:42;-4.90;99.90
17236;DHT22;8734;59.272;17.780;2022-12-07T05:04:10;-4.90;99.90
17236;DHT22;8734;59.272;17.780;2022-12-07T05:06:40;-4.90;99.90
17236;DHT22;8734;59.272;17.780;2022-12-07T05:09:08;-5.00;99.90
17236;DHT22;8734;59.272;17.780;2022-12-07T05:11:36;-5.00;99.90
17236;DHT22;8734;59.272;17.780;2022-12-07T05:14:11;-5.10;99.90
17236;DHT22;8734;59.272;17.780;2022-12-07T05:16:40;-5.10;99.90
17236;DHT22;8734;59.272;17.780;2022-12-07T05:19:09;-5.10;99.90
17236;DHT22;8734;59.272;17.780;2022-12-07T05:21:39;-5.10;99.90
17236;DHT22;8734;59.272;17.780;2022-12-07T05:24:10;-5.20;99.90
17236;DHT22;8734;59.272;17.780;2022-12-07T05:26:39;-5.10;99.90
17236;DHT22;8734;59.272;17.780;2022-12-07T05:29:09;-5.10;99.90
17236;DHT22;8734;59.272;17.780;2022-12-07T05:31:40;-5.10;99.90
17236;DHT22;8734;59.272;17.780;2022-12-07T05:34:09;-5.10;99.90
17236;DHT22;8734;59.272;17.780;2022-12-07T05:36:37;-5.00;99.90
17236;DHT22;8734;59.272;17.780;2022-12-07T05:39:07;-5.00;99.90
17236;DHT22;8734;59.272;17.780;2022-12-07T05:41:35;-5.00;99.90
17236;DHT22;8734;59.272;17.780;2022-12-07T05:44:36;-4.90;99.90
17236;DHT22;8734;59.272;17.780;2022-12-07T05:47:04;-4.90;99.90
17236;DHT22;8734;59.272;17.780;2022-12-07T05:49:32;-4.90;99.90
17236;DHT22;8734;59.272;17.780;2022-12-07T05:52:01;-4.90;99.90
17236;DHT22;8734;59.272;17.780;2022-12-07T05:54:31;-4.80;99.90
17236;DHT22;8734;59.272;17.780;2022-12-07T05:56:59;-4.80;99.90
17236;DHT22;8734;59.272;17.780;2022-12-07T05:59:27;-4.60;99.90
17236;DHT22;8734;59.272;17.780;2022-12-07T06:01:56;-4.30;99.90
17236;DHT22;8734;59.272;17.780;2022-12-07T06:04:26;-4.20;99.90
17236;DHT22;8734;59.272;17.780;2022-12-07T06:06:56;-4.20;99.90
17236;DHT22;8734;59.272;17.780;2022-12-07T06:09:25;-4.20;99.90
17236;DHT22;8734;59.272;17.780;2022-12-07T06:11:56;-4.20;99.90
17236;DHT22;8734;59.272;17.780;2022-12-07T06:14:43;-4.30;99.90
17236;DHT22;8734;59.272;17.780;2022-12-07T06:17:11;-4.40;99.90
17236;DHT22;8734;59.272;17.780;2022-12-07T06:19:40;-4.40;99.90
17236;DHT22;8734;59.272;17.780;2022-12-07T06:22:09;-4.40;99.90
17236;DHT22;8734;59.272;17.780;2022-12-07T06:24:39;-4.50;99.90
17236;DHT22;8734;59.272;17.780;2022-12-07T06:27:09;-4.50;99.90
17236;DHT22;8734;59.272;17.780;2022-12-07T06:29:37;-4.60;99.90
17236;DHT22;8734;59.272;17.780;2022-12-07T06:32:06;-4.70;99.90
17236;DHT22;8734;59.272;17.780;2022-12-07T06:34:34;-4.70;99.90
17236;DHT22;8734;59.272;17.780;2022-12-07T06:37:03;-4.70;99.90
17236;DHT22;8734;59.272;17.780;2022-12-07T06:39:32;-4.80;99.90
17236;DHT22;8734;59.272;17.780;2022-12-07T06:42:00;-4.80;99.90
17236;DHT22;8734;59.272;17.780;2022-12-07T06:44:30;-4.60;99.90
17236;DHT22;8734;59.272;17.780;2022-12-07T06:46:58;-4.60;99.90
17236;DHT22;8734;59.272;17.780;2022-12-07T06:49:46;-4.50;99.90
17236;DHT22;8734;59.272;17.780;2022-12-07T06:52:15;-4.50;99.90
17236;DHT22;8734;59.272;17.780;2022-12-07T06:54:43;-4.60;99.90
17236;DHT22;8734;59.272;17.780;2022-12-07T06:57:12;-4.70;99.90
17236;DHT22;8734;59.272;17.780;2022-12-07T06:59:42;-4.80;99.90
17236;DHT22;8734;59.272;17.780;2022-12-07T07:02:10;-4.90;99.90
17236;DHT22;8734;59.272;17.780;2022-12-07T07:04:38;-4.90;99.90
17236;DHT22;8734;59.272;17.780;2022-12-07T07:07:08;-4.80;99.90
17236;DHT22;8734;59.272;17.780;2022-12-07T07:09:36;-4.70;99.90
17236;DHT22;8734;59.272;17.780;2022-12-07T07:12:05;-4.60;99.90
17236;DHT22;8734;59.272;17.780;2022-12-07T07:14:33;-4.60;99.90
17236;DHT22;8734;59.272;17.780;2022-12-07T07:17:03;-4.60;99.90
17236;DHT22;8734;59.272;17.780;2022-12-07T07:19:31;-4.60;99.90
17236;DHT22;8734;59.272;17.780;2022-12-07T07:22:00;-4.60;99.90
17236;DHT22;8734;59.272;17.780;2022-12-07T07:24:28;-4.60;99.90
17236;DHT22;8734;59.272;17.780;2022-12-07T07:26:56;-4.70;99.90
17236;DHT22;8734;59.272;17.780;2022-12-07T07:29:25;-4.80;99.90
17236;DHT22;8734;59.272;17.780;2022-12-07T07:31:53;-4.90;99.90
17236;DHT22;8734;59.272;17.780;2022-12-07T07:34:30;-5.00;99.90
17236;DHT22;8734;59.272;17.780;2022-12-07T07:36:59;-5.10;99.90
17236;DHT22;8734;59.272;17.780;2022-12-07T07:39:27;-5.10;99.90
17236;DHT22;8734;59.272;17.780;2022-12-07T07:41:55;-5.20;99.90
17236;DHT22;8734;59.272;17.780;2022-12-07T07:44:24;-5.20;99.90
17236;DHT22;8734;59.272;17.780;2022-12-07T07:47:00;-5.30;99.90
17236;DHT22;8734;59.272;17.780;2022-12-07T07:49:30;-5.30;99.90
17236;DHT22;8734;59.272;17.780;2022-12-07T07:51:58;-5.30;99.90
17236;DHT22;8734;59.272;17.780;2022-12-07T07:54:27;-5.40;99.90
17236;DHT22;8734;59.272;17.780;2022-12-07T07:56:55;-5.40;99.90
17236;DHT22;8734;59.272;17.780;2022-12-07T07:59:23;-5.40;99.90
17236;DHT22;8734;59.272;17.780;2022-12-07T08:01:52;-5.40;99.90
17236;DHT22;8734;59.272;17.780;2022-12-07T08:04:21;-5.40;99.90
17236;DHT22;8734;59.272;17.780;2022-12-07T08:06:52;-5.30;99.90
17236;DHT22;8734;59.272;17.780;2022-12-07T08:09:20;-5.40;99.90
17236;DHT22;8734;59.272;17.780;2022-12-07T08:11:48;-5.40;99.90
17236;DHT22;8734;59.272;17.780;2022-12-07T08:14:16;-5.30;99.90
17236;DHT22;8734;59.272;17.780;2022-12-07T08:16:45;-5.30;99.90
17236;DHT22;8734;59.272;17.780;2022-12-07T08:19:13;-5.30;99.90
17236;DHT22;8734;59.272;17.780;2022-12-07T08:21:41;-5.30;99.90
17236;DHT22;8734;59.272;17.780;2022-12-07T08:24:11;-5.20;99.90
17236;DHT22;8734;59.272;17.780;2022-12-07T08:26:39;-5.00;99.90
17236;DHT22;8734;59.272;17.780;2022-12-07T08:29:08;-4.90;99.90
17236;DHT22;8734;59.272;17.780;2022-12-07T08:31:36;-4.90;99.90
17236;DHT22;8734;59.272;17.780;2022-12-07T08:34:05;-4.90;99.90
17236;DHT22;8734;59.272;17.780;2022-12-07T08:36:33;-5.00;99.90
17236;DHT22;8734;59.272;17.780;2022-12-07T08:39:02;-5.00;99.90
17236;DHT22;8734;59.272;17.780;2022-12-07T08:41:52;-5.00;99.90
17236;DHT22;8734;59.272;17.780;2022-12-07T08:44:22;-5.00;99.90
17236;DHT22;8734;59.272;17.780;2022-12-07T08:46:52;-5.00;99.90
17236;DHT22;8734;59.272;17.780;2022-12-07T08:49:25;-4.70;99.90
17236;DHT22;8734;59.272;17.780;2022-12-07T08:51:55;-4.70;99.90
17236;DHT22;8734;59.272;17.780;2022-12-07T08:54:23;-4.70;99.90
17236;DHT22;8734;59.272;17.780;2022-12-07T08:56:54;-4.60;99.90
17236;DHT22;8734;59.272;17.780;2022-12-07T08:59:26;-4.70;99.90
17236;DHT22;8734;59.272;17.780;2022-12-07T09:01:55;-4.80;99.90
17236;DHT22;8734;59.272;17.780;2022-12-07T09:04:24;-4.80;99.90
17236;DHT22;8734;59.272;17.780;2022-12-07T09:06:54;-4.80;99.90
17236;DHT22;8734;59.272;17.780;2022-12-07T09:09:23;-4.80;99.90
17236;DHT22;8734;59.272;17.780;2022-12-07T09:11:53;-4.80;99.90
17236;DHT22;8734;59.272;17.780;2022-12-07T09:14:22;-4.80;99.90
17236;DHT22;8734;59.272;17.780;2022-12-07T09:16:50;-4.80;99.90
17236;DHT22;8734;59.272;17.780;2022-12-07T09:19:19;-4.80;99.90
17236;DHT22;8734;59.272;17.780;2022-12-07T09:21:47;-4.70;99.90
17236;DHT22;8734;59.272;17.780;2022-12-07T09:24:15;-4.50;99.90
17236;DHT22;8734;59.272;17.780;2022-12-07T09:26:44;-4.40;99.90
17236;DHT22;8734;59.272;17.780;2022-12-07T09:29:13;-4.30;99.90
17236;DHT22;8734;59.272;17.780;2022-12-07T09:31:42;-4.20;99.90
17236;DHT22;8734;59.272;17.780;2022-12-07T09:34:10;-4.10;99.90
17236;DHT22;8734;59.272;17.780;2022-12-07T09:36:38;-4.00;99.90
17236;DHT22;8734;59.272;17.780;2022-12-07T09:39:07;-3.90;99.90
17236;DHT22;8734;59.272;17.780;2022-12-07T09:41:37;-3.80;99.90
17236;DHT22;8734;59.272;17.780;2022-12-07T09:44:13;-3.60;99.90
17236;DHT22;8734;59.272;17.780;2022-12-07T09:46:43;-3.50;99.90
17236;DHT22;8734;59.272;17.780;2022-12-07T09:49:13;-3.40;99.90
17236;DHT22;8734;59.272;17.780;2022-12-07T09:51:42;-3.30;99.90
17236;DHT22;8734;59.272;17.780;2022-12-07T09:54:13;-3.20;99.90
17236;DHT22;8734;59.272;17.780;2022-12-07T09:56:41;-3.10;99.90
17236;DHT22;8734;59.272;17.780;2022-12-07T09:59:16;-3.10;99.90
17236;DHT22;8734;59.272;17.780;2022-12-07T10:01:46;-3.10;99.90
17236;DHT22;8734;59.272;17.780;2022-12-07T10:04:18;-3.10;99.90
17236;DHT22;8734;59.272;17.780;2022-12-07T10:06:48;-3.00;99.90
17236;DHT22;8734;59.272;17.780;2022-12-07T10:09:19;-3.00;99.90
17236;DHT22;8734;59.272;17.780;2022-12-07T10:12:05;-3.00;99.90
17236;DHT22;8734;59.272;17.780;2022-12-07T10:14:39;-3.10;99.90
17236;DHT22;8734;59.272;17.780;2022-12-07T10:17:36;-3.10;99.90
17236;DHT22;8734;59.272;17.780;2022-12-07T10:20:14;-3.10;99.90
17236;DHT22;8734;59.272;17.780;2022-12-07T10:22:58;-3.00;99.90
17236;DHT22;8734;59.272;17.780;2022-12-07T10:25:29;-3.00;99.90
17236;DHT22;8734;59.272;17.780;2022-12-07T10:28:02;-3.00;99.90
17236;DHT22;8734;59.272;17.780;2022-12-07T10:30:33;-2.90;99.90
17236;DHT22;8734;59.272;17.780;2022-12-07T10:33:02;-2.90;99.90
17236;DHT22;8734;59.272;17.780;2022-12-07T10:35:31;-2.90;99.90
17236;DHT22;8734;59.272;17.780;2022-12-07T10:38:00;-2.90;99.90
17236;DHT22;8734;59.272;17.780;2022-12-07T10:40:31;-2.90;99.90
17236;DHT22;8734;59.272;17.780;2022-12-07T10:43:04;-2.80;99.90
17236;DHT22;8734;59.272;17.780;2022-12-07T10:48:47;-2.80;99.90
17236;DHT22;8734;59.272;17.780;2022-12-07T10:51:27;-2.80;99.90
17236;DHT22;8734;59.272;17.780;2022-12-07T10:54:11;-2.80;99.90
17236;DHT22;8734;59.272;17.780;2022-12-07T10:59:57;-2.90;99.90
17236;DHT22;8734;59.272;17.780;2022-12-07T11:05:56;-2.70;99.90
17236;DHT22;8734;59.272;17.780;2022-12-07T11:08:39;-2.70;99.90
17236;DHT22;8734;59.272;17.780;2022-12-07T11:11:13;-2.70;99.90
17236;DHT22;8734;59.272;17.780;2022-12-07T11:13:47;-2.70;99.90
17236;DHT22;8734;59.272;17.780;2022-12-07T11:16:39;-2.70;99.90
17236;DHT22;8734;59.272;17.780;2022-12-07T11:19:39;-2.70;99.90
17236;DHT22;8734;59.272;17.780;2022-12-07T11:22:26;-2.70;99.90
17236;DHT22;8734;59.272;17.780;2022-12-07T11:25:00;-2.60;99.90
17236;DHT22;8734;59.272;17.780;2022-12-07T11:27:34;-2.60;99.90
17236;DHT22;8734;59.272;17.780;2022-12-07T11:30:18;-2.60;99.90
17236;DHT22;8734;59.272;17.780;2022-12-07T11:33:04;-2.60;99.90
17236;DHT22;8734;59.272;17.780;2022-12-07T11:35:46;-2.60;99.90
17236;DHT22;8734;59.272;17.780;2022-12-07T11:38:23;-2.60;99.90
17236;DHT22;8734;59.272;17.780;2022-12-07T11:41:00;-2.60;99.90
17236;DHT22;8734;59.272;17.780;2022-12-07T11:43:55;-2.60;99.90
17236;DHT22;8734;59.272;17.780;2022-12-07T11:46:29;-2.60;99.90
17236;DHT22;8734;59.272;17.780;2022-12-07T11:49:12;-2.60;99.90
17236;DHT22;8734;59.272;17.780;2022-12-07T11:51:43;-2.60;99.90
17236;DHT22;8734;59.272;17.780;2022-12-07T11:54:19;-2.60;99.90
17236;DHT22;8734;59.272;17.780;2022-12-07T11:56:50;-2.60;99.90
17236;DHT22;8734;59.272;17.780;2022-12-07T11:59:25;-2.60;99.90
17236;DHT22;8734;59.272;17.780;2022-12-07T12:01:56;-2.60;99.90
17236;DHT22;8734;59.272;17.780;2022-12-07T12:04:32;-2.50;99.90
17236;DHT22;8734;59.272;17.780;2022-12-07T12:07:03;-2.60;99.90
17236;DHT22;8734;59.272;17.780;2022-12-07T12:09:59;-2.60;99.90
17236;DHT22;8734;59.272;17.780;2022-12-07T12:13:01;-2.60;99.90
17236;DHT22;8734;59.272;17.780;2022-12-07T12:16:08;-2.60;99.90
17236;DHT22;8734;59.272;17.780;2022-12-07T12:19:02;-2.50;99.90
17236;DHT22;8734;59.272;17.780;2022-12-07T12:21:34;-2.50;99.90
17236;DHT22;8734;59.272;17.780;2022-12-07T12:24:05;-2.50;99.90
17236;DHT22;8734;59.272;17.780;2022-12-07T12:26:40;-2.50;99.90
17236;DHT22;8734;59.272;17.780;2022-12-07T12:29:22;-2.50;99.90
17236;DHT22;8734;59.272;17.780;2022-12-07T12:32:12;-2.50;99.90
17236;DHT22;8734;59.272;17.780;2022-12-07T12:35:01;-2.50;99.90
17236;DHT22;8734;59.272;17.780;2022-12-07T12:37:44;-2.50;99.90
17236;DHT22;8734;59.272;17.780;2022-12-07T12:40:42;-2.40;99.90
17236;DHT22;8734;59.272;17.780;2022-12-07T12:43:44;-2.50;99.90
17236;DHT22;8734;59.272;17.780;2022-12-07T12:46:54;-2.50;99.90
17236;DHT22;8734;59.272;17.780;2022-12-07T12:49:35;-2.50;99.90
17236;DHT22;8734;59.272;17.780;2022-12-07T12:55:27;-2.60;99.90
17236;DHT22;8734;59.272;17.780;2022-12-07T12:58:32;-2.60;99.90
17236;DHT22;8734;59.272;17.780;2022-12-07T13:01:36;-2.60;99.90
17236;DHT22;8734;59.272;17.780;2022-12-07T13:07:49;-2.70;99.90
17236;DHT22;8734;59.272;17.780;2022-12-07T13:10:31;-2.70;99.90
17236;DHT22;8734;59.272;17.780;2022-12-07T13:13:03;-2.60;99.90
17236;DHT22;8734;59.272;17.780;2022-12-07T13:15:35;-2.60;99.90
17236;DHT22;8734;59.272;17.780;2022-12-07T13:18:35;-2.60;99.90
17236;DHT22;8734;59.272;17.780;2022-12-07T13:21:41;-2.60;99.90
17236;DHT22;8734;59.272;17.780;2022-12-07T13:24:12;-2.60;99.90
17236;DHT22;8734;59.272;17.780;2022-12-07T13:26:42;-2.60;99.90
17236;DHT22;8734;59.272;17.780;2022-12-07T13:29:14;-2.60;99.90
17236;DHT22;8734;59.272;17.780;2022-12-07T13:31:45;-2.70;99.90
17236;DHT22;8734;59.272;17.780;2022-12-07T13:34:31;-2.70;99.90
17236;DHT22;8734;59.272;17.780;2022-12-07T13:37:02;-2.70;99.90
17236;DHT22;8734;59.272;17.780;2022-12-07T13:39:33;-2.70;99.90
17236;DHT22;8734;59.272;17.780;2022-12-07T13:42:14;-2.80;99.90
17236;DHT22;8734;59.272;17.780;2022-12-07T13:44:45;-2.90;99.90
17236;DHT22;8734;59.272;17.780;2022-12-07T13:47:15;-3.00;99.90
17236;DHT22;8734;59.272;17.780;2022-12-07T13:49:49;-3.00;99.90
17236;DHT22;8734;59.272;17.780;2022-12-07T13:52:21;-3.00;99.90
17236;DHT22;8734;59.272;17.780;2022-12-07T13:54:57;-2.90;99.90
17236;DHT22;8734;59.272;17.780;2022-12-07T13:57:26;-2.80;99.90
17236;DHT22;8734;59.272;17.780;2022-12-07T13:59:56;-2.80;99.90
17236;DHT22;8734;59.272;17.780;2022-12-07T14:02:27;-2.80;99.90
17236;DHT22;8734;59.272;17.780;2022-12-07T14:05:10;-2.80;99.90
17236;DHT22;8734;59.272;17.780;2022-12-07T14:07:52;-2.90;99.90
17236;DHT22;8734;59.272;17.780;2022-12-07T14:10:25;-3.00;99.90
17236;DHT22;8734;59.272;17.780;2022-12-07T14:12:54;-3.10;99.90
17236;DHT22;8734;59.272;17.780;2022-12-07T14:15:25;-3.10;99.90
17236;DHT22;8734;59.272;17.780;2022-12-07T14:17:56;-3.20;99.90
17236;DHT22;8734;59.272;17.780;2022-12-07T14:20:33;-3.20;99.90
17236;DHT22;8734;59.272;17.780;2022-12-07T14:23:02;-3.30;99.90
17236;DHT22;8734;59.272;17.780;2022-12-07T14:25:45;-3.30;99.90
17236;DHT22;8734;59.272;17.780;2022-12-07T14:28:27;-3.30;99.90
17236;DHT22;8734;59.272;17.780;2022-12-07T14:30:57;-3.40;99.90
17236;DHT22;8734;59.272;17.780;2022-12-07T14:33:25;-3.30;99.90
17236;DHT22;8734;59.272;17.780;2022-12-07T14:35:55;-3.40;99.90
17236;DHT22;8734;59.272;17.780;2022-12-07T14:38:25;-3.30;99.90
17236;DHT22;8734;59.272;17.780;2022-12-07T14:40:54;-3.20;99.90
17236;DHT22;8734;59.272;17.780;2022-12-07T14:43:43;-3.10;99.90
17236;DHT22;8734;59.272;17.780;2022-12-07T14:46:31;-3.10;99.90
17236;DHT22;8734;59.272;17.780;2022-12-07T14:49:00;-3.00;99.90
17236;DHT22;8734;59.272;17.780;2022-12-07T14:51:49;-3.00;99.90
17236;DHT22;8734;59.272;17.780;2022-12-07T14:54:38;-3.00;99.90
17236;DHT22;8734;59.272;17.780;2022-12-07T14:57:08;-3.00;99.90
17236;DHT22;8734;59.272;17.780;2022-12-07T14:59:37;-3.00;99.90
17236;DHT22;8734;59.272;17.780;2022-12-07T15:02:12;-3.00;99.90
17236;DHT22;8734;59.272;17.780;2022-12-07T15:04:41;-3.00;99.90
17236;DHT22;8734;59.272;17.780;2022-12-07T15:07:16;-3.00;99.90
17236;DHT22;8734;59.272;17.780;2022-12-07T15:09:47;-3.10;99.90
17236;DHT22;8734;59.272;17.780;2022-12-07T15:12:15;-3.10;99.90
17236;DHT22;8734;59.272;17.780;2022-12-07T15:14:43;-3.10;99.90
17236;DHT22;8734;59.272;17.780;2022-12-07T15:17:12;-3.10;99.90
17236;DHT22;8734;59.272;17.780;2022-12-07T15:19:54;-3.10;99.90
17236;DHT22;8734;59.272;17.780;2022-12-07T15:22:23;-3.10;99.90
17236;DHT22;8734;59.272;17.780;2022-12-07T15:24:51;-3.20;99.90
17236;DHT22;8734;59.272;17.780;2022-12-07T15:27:19;-3.20;99.90
17236;DHT22;8734;59.272;17.780;2022-12-07T15:29:48;-3.20;99.90
17236;DHT22;8734;59.272;17.780;2022-12-07T15:32:16;-3.20;99.90
17236;DHT22;8734;59.272;17.780;2022-12-07T15:34:46;-3.20;99.90
17236;DHT22;8734;59.272;17.780;2022-12-07T15:37:14;-3.20;99.90
17236;DHT22;8734;59.272;17.780;2022-12-07T15:39:43;-3.20;99.90
17236;DHT22;8734;59.272;17.780;2022-12-07T15:42:12;-3.20;99.90
17236;DHT22;8734;59.272;17.780;2022-12-07T15:44:40;-3.20;99.90
17236;DHT22;8734;59.272;17.780;2022-12-07T15:47:27;-3.30;99.90
17236;DHT22;8734;59.272;17.780;2022-12-07T15:49:55;-3.30;99.90
17236;DHT22;8734;59.272;17.780;2022-12-07T15:52:23;-3.30;99.90
17236;DHT22;8734;59.272;17.780;2022-12-07T15:54:53;-3.30;99.90
17236;DHT22;8734;59.272;17.780;2022-12-07T15:57:21;-3.40;99.90
17236;DHT22;8734;59.272;17.780;2022-12-07T15:59:51;-3.40;99.90
17236;DHT22;8734;59.272;17.780;2022-12-07T16:02:20;-3.40;99.90
17236;DHT22;8734;59.272;17.780;2022-12-07T16:04:49;-3.50;99.90
17236;DHT22;8734;59.272;17.780;2022-12-07T16:07:18;-3.50;99.90
17236;DHT22;8734;59.272;17.780;2022-12-07T16:09:47;-3.50;99.90
17236;DHT22;8734;59.272;17.780;2022-12-07T16:12:17;-3.50;99.90
17236;DHT22;8734;59.272;17.780;2022-12-07T16:14:46;-3.50;99.90
17236;DHT22;8734;59.272;17.780;2022-12-07T16:17:14;-3.50;99.90
17236;DHT22;8734;59.272;17.780;2022-12-07T16:19:42;-3.50;99.90
17236;DHT22;8734;59.272;17.780;2022-12-07T16:22:10;-3.50;99.90
17236;DHT22;8734;59.272;17.780;2022-12-07T16:24:39;-3.50;99.90
17236;DHT22;8734;59.272;17.780;2022-12-07T16:27:07;-3.50;99.90
17236;DHT22;8734;59.272;17.780;2022-12-07T16:29:37;-3.60;99.90